Time;durP1;ratioP1;P1;durP2;ratioP2;P2;SDS_P1;SDS_P2;PMS_P1;PMS_P2;Temp;Humidity;BMP_temperature;BMP_pressure;BME280_temperature;BME280_humidity;BME280_pressure;Samples;Min_cycle;Max_cycle;Signal;HPM_P1;HPM_P2
2022/03/22 00:04:18;;;;;;;0.20;0.17;;;11.60;99.90;;;;;;20877198;28;20198;-67
2022/03/22 00:14:23;;;;;;;0.20;0.10;;;11.60;99.90;;;;;;20893175;28;20226;-66
2022/03/22 00:24:48;;;;;;;0.20;0.10;;;11.60;99.90;;;;;;20874314;28;20217;-67
2022/03/22 00:34:52;;;;;;;0.20;0.10;;;11.50;99.90;;;;;;20872753;28;20249;-66
2022/03/22 00:44:57;;;;;;;0.20;0.10;;;11.50;99.90;;;;;;20873668;28;20210;-67
2022/03/22 00:55:01;;;;;;;0.20;0.10;;;11.40;99.90;;;;;;20875975;28;20231;-67
2022/03/22 01:05:11;;;;;;;0.20;0.10;;;11.40;99.90;;;;;;20889886;28;20217;-67
2022/03/22 01:15:17;;;;;;;0.20;0.10;;;11.40;99.90;;;;;;20871803;28;20555;-68
2022/03/22 01:25:25;;;;;;;0.20;0.10;;;11.40;99.90;;;;;;20886944;28;20198;-67
2022/03/22 01:35:29;;;;;;;0.20;0.10;;;11.60;99.90;;;;;;20870577;28;20229;-66
2022/03/22 01:45:34;;;;;;;0.20;0.10;;;11.50;99.90;;;;;;20804769;28;20258;-66
2022/03/22 01:55:39;;;;;;;0.20;0.10;;;11.50;99.90;;;;;;20805068;28;20223;-66
2022/03/22 02:05:52;;;;;;;0.20;0.10;;;11.40;99.90;;;;;;20803182;28;20355;-65
2022/03/22 02:15:59;;;;;;;0.20;0.10;;;11.30;99.90;;;;;;20784028;28;20245;-72
2022/03/22 02:26:06;;;;;;;0.20;0.10;;;11.30;99.90;;;;;;20784645;28;20198;-74
2022/03/22 02:36:10;;;;;;;0.20;0.10;;;11.20;99.90;;;;;;20819284;28;20226;-73
2022/03/22 02:46:16;;;;;;;0.20;0.10;;;11.20;99.90;;;;;;20799200;28;20195;-75
2022/03/22 02:56:20;;;;;;;0.20;0.10;;;11.30;99.90;;;;;;20800304;28;20510;-67
2022/03/22 03:06:28;;;;;;;0.20;0.10;;;11.20;99.90;;;;;;20798404;28;20203;-67
2022/03/22 03:16:33;;;;;;;0.20;0.10;;;11.20;99.90;;;;;;20833098;28;20253;-66
2022/03/22 03:26:38;;;;;;;0.20;0.10;;;11.20;99.90;;;;;;20882261;28;20210;-68
2022/03/22 03:36:42;;;;;;;0.20;0.10;;;11.00;99.90;;;;;;20862439;28;20230;-67
2022/03/22 03:47:07;;;;;;;0.20;0.10;;;11.00;99.90;;;;;;20873870;28;20217;-66
2022/03/22 03:57:11;;;;;;;0.20;0.10;;;11.00;99.90;;;;;;20895407;28;20248;-66
2022/03/22 04:07:18;;;;;;;0.20;0.10;;;11.10;99.90;;;;;;20876942;28;20198;-67
2022/03/22 04:17:23;;;;;;;0.30;0.30;;;11.10;99.90;;;;;;20876282;28;20238;-66
2022/03/22 04:37:52;;;;;;;0.20;0.10;;;11.10;99.90;;;;;;20891038;28;20218;-65
2022/03/22 04:47:57;;;;;;;0.20;0.10;;;11.00;99.90;;;;;;20890534;28;20202;-66
2022/03/22 04:58:02;;;;;;;0.20;0.10;;;10.90;99.90;;;;;;20889404;28;20445;-66
2022/03/22 05:08:07;;;;;;;0.20;0.10;;;11.00;99.90;;;;;;20888776;28;20199;-68
2022/03/22 05:18:11;;;;;;;0.20;0.10;;;11.00;99.90;;;;;;20890058;28;20486;-67
2022/03/22 05:28:16;;;;;;;0.20;0.10;;;11.00;99.90;;;;;;20887962;28;20214;-66
2022/03/22 05:38:20;;;;;;;0.20;0.10;;;11.00;99.90;;;;;;20867240;28;20252;-76
2022/03/22 05:48:26;;;;;;;0.20;0.10;;;11.10;99.90;;;;;;20887255;28;20277;-78
2022/03/22 05:58:29;;;;;;;0.20;0.10;;;11.00;99.90;;;;;;20870692;28;20329;-66
2022/03/22 06:08:35;;;;;;;0.20;0.10;;;10.90;99.90;;;;;;20880402;28;20250;-67
2022/03/22 06:18:39;;;;;;;0.20;0.10;;;10.90;99.90;;;;;;20879822;28;20249;-67
2022/03/22 06:28:44;;;;;;;0.20;0.10;;;10.90;99.90;;;;;;20857101;28;20203;-67
2022/03/22 06:38:48;;;;;;;0.30;0.30;;;11.10;99.90;;;;;;20873331;28;20230;-67
2022/03/22 06:48:53;;;;;;;0.20;0.10;;;11.50;99.90;;;;;;20874152;28;20348;-67
2022/03/22 06:59:02;;;;;;;0.20;0.10;;;11.50;99.90;;;;;;20870957;28;20233;-66
2022/03/22 07:09:07;;;;;;;0.20;0.10;;;11.70;99.90;;;;;;20870345;28;20202;-74
2022/03/22 07:19:10;;;;;;;0.40;0.40;;;11.80;99.90;;;;;;20882488;28;20248;-77
2022/03/22 07:29:15;;;;;;;0.20;0.10;;;12.00;99.90;;;;;;20876780;28;20224;-66
2022/03/22 07:39:20;;;;;;;0.20;0.10;;;11.50;99.90;;;;;;20857949;28;20241;-67
2022/03/22 07:59:47;;;;;;;0.20;0.10;;;11.20;99.90;;;;;;20791179;28;20565;-68
2022/03/22 08:09:52;;;;;;;0.20;0.10;;;11.40;99.90;;;;;;20786047;28;20235;-67
2022/03/22 08:19:56;;;;;;;0.20;0.10;;;11.50;99.90;;;;;;20800204;28;20235;-68
2022/03/22 08:30:02;;;;;;;0.20;0.10;;;11.20;99.90;;;;;;20803356;28;20253;-75
2022/03/22 08:40:08;;;;;;;0.20;0.10;;;11.10;99.90;;;;;;20842016;28;20238;-76
2022/03/22 08:50:15;;;;;;;0.20;0.10;;;11.10;99.90;;;;;;20870167;28;20191;-73
2022/03/22 09:00:19;;;;;;;0.20;0.20;;;11.30;99.90;;;;;;20877993;28;20493;-67
2022/03/22 09:10:29;;;;;;;0.20;0.10;;;11.60;99.90;;;;;;20884454;28;20249;-67
2022/03/22 09:20:34;;;;;;;0.20;0.10;;;11.70;99.90;;;;;;20880561;28;20234;-77
2022/03/22 09:30:40;;;;;;;0.20;0.10;;;12.20;99.90;;;;;;20860284;28;20202;-78
2022/03/22 09:40:44;;;;;;;0.20;0.10;;;13.00;99.90;;;;;;20868341;28;20248;-68
2022/03/22 10:01:11;;;;;;;0.20;0.10;;;14.40;99.90;;;;;;20866106;28;20320;-66
2022/03/22 10:11:17;;;;;;;0.20;0.10;;;14.90;99.90;;;;;;20868640;28;20264;-67
2022/03/22 10:21:21;;;;;;;0.20;0.10;;;15.30;99.90;;;;;;20862968;28;20230;-66
2022/03/22 10:31:37;;;;;;;0.20;0.10;;;14.90;99.90;;;;;;20865637;28;20206;-84
2022/03/22 10:41:42;;;;;;;0.20;0.10;;;15.70;99.90;;;;;;20905934;28;20237;-81
2022/03/22 10:51:49;;;;;;;0.20;0.00;;;15.40;99.90;;;;;;20942735;28;20199;-74
2022/03/22 11:01:55;;;;;;;0.20;0.10;;;16.80;99.90;;;;;;20927369;28;20222;-73
2022/03/22 11:12:02;;;;;;;0.20;0.10;;;16.00;99.90;;;;;;20946708;28;20589;-66
2022/03/22 11:22:06;;;;;;;0.20;0.10;;;17.50;99.90;;;;;;20944412;28;20229;-66
2022/03/22 11:42:34;;;;;;;0.20;0.13;;;18.90;99.90;;;;;;20860638;28;20237;-74
2022/03/22 11:52:40;;;;;;;0.20;0.10;;;19.20;99.90;;;;;;20850276;28;20194;-68
2022/03/22 12:02:51;;;;;;;0.20;0.00;;;19.00;99.90;;;;;;20841616;28;20248;-78
2022/03/22 12:12:58;;;;;;;0.20;0.00;;;18.80;99.90;;;;;;20855100;28;20256;-75
2022/03/22 12:23:03;;;;;;;0.20;0.10;;;17.30;99.90;;;;;;20861384;28;20230;-79
2022/03/22 12:33:11;;;;;;;0.20;0.10;;;17.20;99.90;;;;;;20884683;28;20214;-78
2022/03/22 12:43:19;;;;;;;0.20;0.10;;;16.20;99.90;;;;;;20862760;28;20237;-76
2022/03/22 12:53:25;;;;;;;0.20;0.10;;;15.80;99.90;;;;;;20862188;28;20194;-77
2022/03/22 13:03:30;;;;;;;0.20;0.10;;;18.10;99.90;;;;;;20861627;28;20226;-79
2022/03/22 13:24:01;;;;;;;0.20;0.10;;;16.90;99.90;;;;;;20875620;28;20222;-67
2022/03/22 13:34:07;;;;;;;0.20;0.10;;;19.60;99.90;;;;;;20868514;28;20198;-67
2022/03/22 13:44:11;;;;;;;0.20;0.10;;;20.40;99.90;;;;;;20875689;28;20240;-79
2022/03/22 13:54:18;;;;;;;0.20;0.10;;;18.50;99.90;;;;;;20880074;28;20198;-67
2022/03/22 14:04:23;;;;;;;0.20;0.10;;;21.40;99.90;;;;;;20876770;28;20233;-68
2022/03/22 14:14:29;;;;;;;0.20;0.10;;;19.50;99.90;;;;;;20857133;28;20244;-67
2022/03/22 14:24:33;;;;;;;0.30;0.30;;;17.70;99.90;;;;;;20801166;28;20236;-67
2022/03/22 14:45:03;;;;;;;0.20;0.10;;;19.40;99.90;;;;;;20869466;28;20233;-66
2022/03/22 14:55:09;;;;;;;0.20;0.10;;;18.80;99.90;;;;;;20868898;28;20217;-73
2022/03/22 15:15:33;;;;;;;0.20;0.13;;;21.70;99.90;;;;;;20869217;28;20276;-76
2022/03/22 15:25:40;;;;;;;0.20;0.00;;;20.90;99.90;;;;;;20852147;28;20248;-74
2022/03/22 15:35:48;;;;;;;0.20;0.00;;;21.50;99.90;;;;;;20833839;28;20226;-76
2022/03/22 15:45:52;;;;;;;0.20;0.10;;;19.00;99.90;;;;;;20801560;28;20223;-71
2022/03/22 15:55:59;;;;;;;0.20;0.03;;;20.00;99.90;;;;;;20803018;28;20313;-72
2022/03/22 16:06:03;;;;;;;0.20;0.10;;;20.60;99.90;;;;;;20811934;28;20310;-72
2022/03/22 16:16:09;;;;;;;0.20;0.00;;;19.60;99.90;;;;;;20810021;28;20298;-72
2022/03/22 16:26:14;;;;;;;0.20;0.10;;;18.00;99.90;;;;;;20830430;28;20225;-73
2022/03/22 16:46:41;;;;;;;0.20;0.20;;;16.30;99.90;;;;;;20859159;28;20234;-74
2022/03/22 16:56:46;;;;;;;0.40;0.40;;;15.70;99.90;;;;;;20798658;28;20218;-75
2022/03/22 17:06:50;;;;;;;0.20;0.10;;;15.60;99.90;;;;;;20778140;28;20199;-75
2022/03/22 17:17:02;;;;;;;0.20;0.10;;;15.40;99.90;;;;;;20836126;28;20248;-73
2022/03/22 17:27:05;;;;;;;0.20;0.10;;;14.60;99.90;;;;;;20925070;28;20266;-74
2022/03/22 17:37:11;;;;;;;0.20;0.10;;;14.40;99.90;;;;;;20852814;28;20272;-69
2022/03/22 17:47:15;;;;;;;2.67;1.70;;;14.10;99.90;;;;;;20871914;28;20213;-69
2022/03/22 17:57:20;;;;;;;0.20;0.10;;;14.00;99.90;;;;;;20861129;28;20240;-81
2022/03/22 18:07:24;;;;;;;0.20;0.10;;;13.70;99.90;;;;;;20841706;28;20195;-70
2022/03/22 18:17:29;;;;;;;0.20;0.00;;;13.60;99.90;;;;;;20795379;28;20231;-80
2022/03/22 18:27:33;;;;;;;0.20;0.10;;;13.60;99.90;;;;;;20784617;28;20201;-77
2022/03/22 18:37:38;;;;;;;0.20;0.10;;;13.10;99.90;;;;;;20826938;28;20234;-68
2022/03/22 18:47:43;;;;;;;0.20;0.10;;;12.90;99.90;;;;;;20795252;28;20219;-67
2022/03/22 18:57:48;;;;;;;0.20;0.10;;;12.80;99.90;;;;;;20795059;28;20222;-65
2022/03/22 19:07:52;;;;;;;0.20;0.10;;;12.60;99.90;;;;;;20796236;28;20207;-76
2022/03/22 19:17:57;;;;;;;0.20;0.10;;;12.50;99.90;;;;;;20838546;28;20237;-76
2022/03/22 19:28:03;;;;;;;0.20;0.10;;;12.20;99.90;;;;;;20861223;28;20201;-67
2022/03/22 19:38:11;;;;;;;0.20;0.10;;;12.10;99.90;;;;;;20876630;28;20230;-68
2022/03/22 19:48:16;;;;;;;0.20;0.20;;;12.00;99.90;;;;;;20877687;28;20207;-66
2022/03/22 19:58:21;;;;;;;0.20;0.10;;;11.90;99.90;;;;;;20872156;28;20222;-67
2022/03/22 20:08:26;;;;;;;0.20;0.10;;;11.90;99.90;;;;;;20797086;28;20199;-69
2022/03/22 20:18:32;;;;;;;0.30;0.30;;;11.80;99.90;;;;;;20805021;28;20231;-68
2022/03/22 20:28:36;;;;;;;0.20;0.20;;;11.80;99.90;;;;;;20868178;28;20198;-68
2022/03/22 20:38:41;;;;;;;0.20;0.10;;;11.70;99.90;;;;;;20865920;28;20238;-68
2022/03/22 20:48:45;;;;;;;0.20;0.10;;;11.80;99.90;;;;;;20809746;28;20206;-68
2022/03/22 20:59:07;;;;;;;0.20;0.10;;;11.60;99.90;;;;;;20809951;28;20234;-68
2022/03/22 21:09:11;;;;;;;0.20;0.10;;;11.40;99.90;;;;;;20822261;28;20232;-67
2022/03/22 21:19:17;;;;;;;0.20;0.10;;;11.10;99.90;;;;;;20840119;28;20229;-72
2022/03/22 21:29:21;;;;;;;0.20;0.10;;;11.10;99.90;;;;;;20875173;28;20270;-71
2022/03/22 21:39:27;;;;;;;0.20;0.10;;;11.20;99.90;;;;;;20856895;28;20249;-70
2022/03/22 21:49:30;;;;;;;0.20;0.10;;;11.20;99.90;;;;;;20805584;28;20195;-72
2022/03/22 21:59:35;;;;;;;0.20;0.10;;;10.80;99.90;;;;;;20839070;28;20226;-72
2022/03/22 22:09:39;;;;;;;0.20;0.10;;;10.90;99.90;;;;;;20831773;28;20217;-72
2022/03/22 22:19:44;;;;;;;0.20;0.10;;;10.90;99.90;;;;;;20808276;28;20238;-71
2022/03/22 22:29:48;;;;;;;0.20;0.10;;;10.90;99.90;;;;;;20790181;28;20207;-70
2022/03/22 22:39:54;;;;;;;0.20;0.10;;;10.70;99.90;;;;;;20838360;28;20241;-70
2022/03/22 22:49:58;;;;;;;0.20;0.10;;;10.70;99.90;;;;;;20806965;28;20190;-68
2022/03/22 23:00:05;;;;;;;0.20;0.10;;;10.60;99.90;;;;;;20845045;28;20226;-64
2022/03/22 23:10:10;;;;;;;0.20;0.10;;;10.50;99.90;;;;;;20846907;28;20242;-65
2022/03/22 23:20:15;;;;;;;0.20;0.10;;;10.40;99.90;;;;;;20843160;28;20222;-63
2022/03/22 23:30:19;;;;;;;0.20;0.10;;;10.10;99.90;;;;;;20844070;28;20201;-64
2022/03/22 23:40:24;;;;;;;0.20;0.10;;;9.90;99.90;;;;;;20828027;28;20221;-64
2022/03/22 23:50:28;;;;;;;0.20;0.10;;;9.90;99.90;;;;;;20843822;28;20212;-64
